Terminal Aerodrome Forecast
Issued by NWS Twin Cities, MN

Home | Current Version | Previous Version | Graphics & Text | Print | Product List | Glossary On
Versions: 1 2 3 4 5 6 7 8 9 10 11 12 13 14 15 16 17 18 19 20 21 22 23 24 25 26 27 28
000
FTUS43 KMPX 042053 AAA
TAFMSP
TAF AMD
KMSP 042053Z 0421/0524 18005KT 5SM HZ FEW050 BKN300
      TEMPO 0421/0423 6SM HZ
     FM042300 18006KT 6SM HZ SCT250
     FM051000 17005KT 6SM BR FEW250
     FM051300 18011KT P6SM FEW250
     FM051800 18013G23KT P6SM SCT050 SCT250=

USA.gov is the U.S. government's official web portal to all federal, state and local government web resources and services.